sensor_id;sensor_type;location;lat;lon;timestamp;P1;durP1;ratioP1;P2;durP2;ratioP2
1400;SDS011;46518;48.842;8.926;2024-01-06T00:00:55;9.52;;;2.42;;
1400;SDS011;46518;48.842;8.926;2024-01-06T00:03:24;2.90;;;1.88;;
1400;SDS011;46518;48.842;8.926;2024-01-06T00:05:52;3.00;;;1.85;;
1400;SDS011;46518;48.842;8.926;2024-01-06T00:08:25;2.15;;;1.50;;
1400;SDS011;46518;48.842;8.926;2024-01-06T00:10:53;3.55;;;1.80;;
1400;SDS011;46518;48.842;8.926;2024-01-06T00:13:22;3.80;;;1.75;;
1400;SDS011;46518;48.842;8.926;2024-01-06T00:15:50;4.82;;;1.58;;
1400;SDS011;46518;48.842;8.926;2024-01-06T00:18:18;4.28;;;2.00;;
1400;SDS011;46518;48.842;8.926;2024-01-06T00:20:47;8.98;;;3.03;;
1400;SDS011;46518;48.842;8.926;2024-01-06T00:23:15;2.67;;;2.47;;
1400;SDS011;46518;48.842;8.926;2024-01-06T00:25:45;5.25;;;2.92;;
1400;SDS011;46518;48.842;8.926;2024-01-06T00:28:13;2.85;;;1.77;;
1400;SDS011;46518;48.842;8.926;2024-01-06T00:30:41;4.95;;;1.92;;
1400;SDS011;46518;48.842;8.926;2024-01-06T00:33:10;1.90;;;1.60;;
1400;SDS011;46518;48.842;8.926;2024-01-06T00:35:38;7.38;;;1.88;;
1400;SDS011;46518;48.842;8.926;2024-01-06T00:38:07;5.32;;;2.00;;
1400;SDS011;46518;48.842;8.926;2024-01-06T00:40:35;2.88;;;1.70;;
1400;SDS011;46518;48.842;8.926;2024-01-06T00:43:06;4.68;;;1.75;;
1400;SDS011;46518;48.842;8.926;2024-01-06T00:45:35;3.30;;;1.90;;
1400;SDS011;46518;48.842;8.926;2024-01-06T00:48:03;3.10;;;1.80;;
1400;SDS011;46518;48.842;8.926;2024-01-06T00:50:32;16.55;;;3.38;;
1400;SDS011;46518;48.842;8.926;2024-01-06T00:53:01;3.53;;;2.03;;
1400;SDS011;46518;48.842;8.926;2024-01-06T00:55:29;3.08;;;2.00;;
1400;SDS011;46518;48.842;8.926;2024-01-06T00:57:57;4.13;;;2.00;;
1400;SDS011;46518;48.842;8.926;2024-01-06T01:00:27;4.70;;;1.83;;
1400;SDS011;46518;48.842;8.926;2024-01-06T01:02:55;4.15;;;2.00;;
1400;SDS011;46518;48.842;8.926;2024-01-06T01:05:23;3.72;;;1.75;;
1400;SDS011;46518;48.842;8.926;2024-01-06T01:07:52;3.53;;;2.28;;
1400;SDS011;46518;48.842;8.926;2024-01-06T01:10:20;2.47;;;1.77;;
1400;SDS011;46518;48.842;8.926;2024-01-06T01:12:48;10.65;;;2.97;;
1400;SDS011;46518;48.842;8.926;2024-01-06T01:15:16;4.55;;;2.08;;
1400;SDS011;46518;48.842;8.926;2024-01-06T01:17:46;2.45;;;1.50;;
1400;SDS011;46518;48.842;8.926;2024-01-06T01:20:14;4.47;;;2.25;;
1400;SDS011;46518;48.842;8.926;2024-01-06T01:22:43;6.45;;;1.88;;
1400;SDS011;46518;48.842;8.926;2024-01-06T01:25:11;4.68;;;2.17;;
1400;SDS011;46518;48.842;8.926;2024-01-06T01:27:39;6.10;;;2.65;;
1400;SDS011;46518;48.842;8.926;2024-01-06T01:30:08;5.25;;;2.58;;
1400;SDS011;46518;48.842;8.926;2024-01-06T01:32:37;3.80;;;1.92;;
1400;SDS011;46518;48.842;8.926;2024-01-06T01:35:07;3.33;;;1.63;;
1400;SDS011;46518;48.842;8.926;2024-01-06T01:37:36;3.47;;;1.80;;
1400;SDS011;46518;48.842;8.926;2024-01-06T01:40:05;1.33;;;1.20;;
1400;SDS011;46518;48.842;8.926;2024-01-06T01:42:34;6.63;;;1.95;;
1400;SDS011;46518;48.842;8.926;2024-01-06T01:45:02;3.40;;;1.60;;
1400;SDS011;46518;48.842;8.926;2024-01-06T01:47:30;3.75;;;2.30;;
1400;SDS011;46518;48.842;8.926;2024-01-06T01:49:59;3.03;;;1.75;;
1400;SDS011;46518;48.842;8.926;2024-01-06T01:52:30;2.75;;;1.88;;
1400;SDS011;46518;48.842;8.926;2024-01-06T01:54:59;3.22;;;1.98;;
1400;SDS011;46518;48.842;8.926;2024-01-06T01:57:27;3.05;;;2.47;;
1400;SDS011;46518;48.842;8.926;2024-01-06T01:59:56;6.00;;;2.97;;
1400;SDS011;46518;48.842;8.926;2024-01-06T02:02:25;3.15;;;2.85;;
1400;SDS011;46518;48.842;8.926;2024-01-06T02:04:54;2.03;;;1.92;;
1400;SDS011;46518;48.842;8.926;2024-01-06T02:07:23;2.50;;;2.15;;
1400;SDS011;46518;48.842;8.926;2024-01-06T02:09:53;4.45;;;2.35;;
1400;SDS011;46518;48.842;8.926;2024-01-06T02:12:21;11.90;;;2.53;;
1400;SDS011;46518;48.842;8.926;2024-01-06T02:14:49;3.88;;;1.88;;
1400;SDS011;46518;48.842;8.926;2024-01-06T02:21:25;5.07;;;2.03;;
1400;SDS011;46518;48.842;8.926;2024-01-06T02:23:57;9.13;;;2.58;;
1400;SDS011;46518;48.842;8.926;2024-01-06T02:26:25;3.75;;;2.17;;
1400;SDS011;46518;48.842;8.926;2024-01-06T02:28:56;2.80;;;2.17;;
1400;SDS011;46518;48.842;8.926;2024-01-06T02:31:28;2.40;;;2.20;;
1400;SDS011;46518;48.842;8.926;2024-01-06T02:33:56;5.25;;;2.40;;
1400;SDS011;46518;48.842;8.926;2024-01-06T02:36:24;2.80;;;2.05;;
1400;SDS011;46518;48.842;8.926;2024-01-06T02:38:53;4.55;;;2.15;;
1400;SDS011;46518;48.842;8.926;2024-01-06T02:41:22;3.05;;;2.53;;
1400;SDS011;46518;48.842;8.926;2024-01-06T02:43:51;4.05;;;1.90;;
1400;SDS011;46518;48.842;8.926;2024-01-06T02:46:19;6.10;;;2.63;;
1400;SDS011;46518;48.842;8.926;2024-01-06T02:48:48;4.50;;;2.03;;
1400;SDS011;46518;48.842;8.926;2024-01-06T02:51:16;4.30;;;2.53;;
1400;SDS011;46518;48.842;8.926;2024-01-06T02:53:44;4.65;;;2.83;;
1400;SDS011;46518;48.842;8.926;2024-01-06T02:56:13;7.00;;;3.10;;
1400;SDS011;46518;48.842;8.926;2024-01-06T02:58:42;2.60;;;2.38;;
1400;SDS011;46518;48.842;8.926;2024-01-06T03:01:11;3.80;;;2.50;;
1400;SDS011;46518;48.842;8.926;2024-01-06T03:03:42;4.45;;;2.00;;
1400;SDS011;46518;48.842;8.926;2024-01-06T03:06:11;2.45;;;2.25;;
1400;SDS011;46518;48.842;8.926;2024-01-06T03:08:39;2.80;;;2.00;;
1400;SDS011;46518;48.842;8.926;2024-01-06T03:11:07;2.60;;;2.35;;
1400;SDS011;46518;48.842;8.926;2024-01-06T03:13:35;2.92;;;2.28;;
1400;SDS011;46518;48.842;8.926;2024-01-06T03:16:05;3.28;;;2.45;;
1400;SDS011;46518;48.842;8.926;2024-01-06T03:18:33;2.28;;;1.98;;
1400;SDS011;46518;48.842;8.926;2024-01-06T03:21:02;3.83;;;2.70;;
1400;SDS011;46518;48.842;8.926;2024-01-06T03:23:41;2.97;;;2.08;;
1400;SDS011;46518;48.842;8.926;2024-01-06T03:26:09;5.00;;;1.90;;
1400;SDS011;46518;48.842;8.926;2024-01-06T03:28:37;3.17;;;2.33;;
1400;SDS011;46518;48.842;8.926;2024-01-06T03:31:09;2.58;;;2.13;;
1400;SDS011;46518;48.842;8.926;2024-01-06T03:33:38;3.70;;;2.80;;
1400;SDS011;46518;48.842;8.926;2024-01-06T03:36:09;3.45;;;1.70;;
1400;SDS011;46518;48.842;8.926;2024-01-06T03:38:40;4.18;;;2.72;;
1400;SDS011;46518;48.842;8.926;2024-01-06T03:41:08;4.30;;;1.75;;
1400;SDS011;46518;48.842;8.926;2024-01-06T03:43:36;6.43;;;4.40;;
1400;SDS011;46518;48.842;8.926;2024-01-06T03:46:04;3.38;;;2.40;;
1400;SDS011;46518;48.842;8.926;2024-01-06T03:48:34;3.53;;;2.20;;
1400;SDS011;46518;48.842;8.926;2024-01-06T03:51:03;5.30;;;2.45;;
1400;SDS011;46518;48.842;8.926;2024-01-06T03:53:31;4.65;;;2.22;;
1400;SDS011;46518;48.842;8.926;2024-01-06T03:55:59;3.38;;;2.00;;
1400;SDS011;46518;48.842;8.926;2024-01-06T03:58:28;3.03;;;1.98;;
1400;SDS011;46518;48.842;8.926;2024-01-06T04:00:56;4.88;;;2.40;;
1400;SDS011;46518;48.842;8.926;2024-01-06T04:03:24;4.75;;;1.80;;
1400;SDS011;46518;48.842;8.926;2024-01-06T04:05:54;2.60;;;1.88;;
1400;SDS011;46518;48.842;8.926;2024-01-06T04:08:22;3.40;;;3.10;;
1400;SDS011;46518;48.842;8.926;2024-01-06T04:10:50;3.75;;;3.40;;
1400;SDS011;46518;48.842;8.926;2024-01-06T04:13:18;5.82;;;2.33;;
1400;SDS011;46518;48.842;8.926;2024-01-06T04:15:46;4.32;;;2.20;;
1400;SDS011;46518;48.842;8.926;2024-01-06T04:18:20;2.30;;;2.05;;
1400;SDS011;46518;48.842;8.926;2024-01-06T04:20:49;4.60;;;2.15;;
1400;SDS011;46518;48.842;8.926;2024-01-06T04:23:18;3.40;;;1.80;;
1400;SDS011;46518;48.842;8.926;2024-01-06T04:25:53;2.20;;;1.75;;
1400;SDS011;46518;48.842;8.926;2024-01-06T04:28:21;2.55;;;2.17;;
1400;SDS011;46518;48.842;8.926;2024-01-06T04:30:50;7.45;;;2.17;;
1400;SDS011;46518;48.842;8.926;2024-01-06T04:33:19;11.52;;;2.45;;
1400;SDS011;46518;48.842;8.926;2024-01-06T04:35:47;4.40;;;2.20;;
1400;SDS011;46518;48.842;8.926;2024-01-06T04:38:16;2.72;;;2.08;;
1400;SDS011;46518;48.842;8.926;2024-01-06T04:40:46;3.28;;;2.10;;
1400;SDS011;46518;48.842;8.926;2024-01-06T04:43:14;3.33;;;1.92;;
1400;SDS011;46518;48.842;8.926;2024-01-06T04:45:42;9.95;;;2.47;;
1400;SDS011;46518;48.842;8.926;2024-01-06T04:48:11;14.18;;;3.03;;
1400;SDS011;46518;48.842;8.926;2024-01-06T04:50:39;2.20;;;1.98;;
1400;SDS011;46518;48.842;8.926;2024-01-06T04:53:07;2.95;;;2.30;;
1400;SDS011;46518;48.842;8.926;2024-01-06T04:55:37;1.90;;;1.73;;
1400;SDS011;46518;48.842;8.926;2024-01-06T04:58:05;2.45;;;1.92;;
1400;SDS011;46518;48.842;8.926;2024-01-06T05:00:33;3.88;;;2.45;;
1400;SDS011;46518;48.842;8.926;2024-01-06T05:03:03;2.75;;;2.05;;
1400;SDS011;46518;48.842;8.926;2024-01-06T05:05:34;2.67;;;1.67;;
1400;SDS011;46518;48.842;8.926;2024-01-06T05:08:02;4.20;;;2.20;;
1400;SDS011;46518;48.842;8.926;2024-01-06T05:10:33;3.80;;;2.60;;
1400;SDS011;46518;48.842;8.926;2024-01-06T05:13:03;5.90;;;3.47;;
1400;SDS011;46518;48.842;8.926;2024-01-06T05:15:31;2.55;;;2.35;;
1400;SDS011;46518;48.842;8.926;2024-01-06T05:17:59;3.80;;;2.50;;
1400;SDS011;46518;48.842;8.926;2024-01-06T05:20:28;5.53;;;3.00;;
1400;SDS011;46518;48.842;8.926;2024-01-06T05:22:56;6.95;;;3.33;;
1400;SDS011;46518;48.842;8.926;2024-01-06T05:25:24;3.40;;;3.10;;
1400;SDS011;46518;48.842;8.926;2024-01-06T05:27:52;3.22;;;2.92;;
1400;SDS011;46518;48.842;8.926;2024-01-06T05:30:22;7.55;;;2.40;;
1400;SDS011;46518;48.842;8.926;2024-01-06T05:32:51;6.00;;;2.95;;
1400;SDS011;46518;48.842;8.926;2024-01-06T05:35:19;4.13;;;3.45;;
1400;SDS011;46518;48.842;8.926;2024-01-06T05:37:47;4.40;;;3.80;;
1400;SDS011;46518;48.842;8.926;2024-01-06T05:40:15;9.63;;;3.75;;
1400;SDS011;46518;48.842;8.926;2024-01-06T05:42:44;3.15;;;2.72;;
1400;SDS011;46518;48.842;8.926;2024-01-06T05:45:15;4.78;;;3.55;;
1400;SDS011;46518;48.842;8.926;2024-01-06T05:47:44;3.35;;;2.97;;
1400;SDS011;46518;48.842;8.926;2024-01-06T05:50:14;5.45;;;3.13;;
1400;SDS011;46518;48.842;8.926;2024-01-06T05:52:42;4.57;;;2.72;;
1400;SDS011;46518;48.842;8.926;2024-01-06T05:55:13;6.03;;;3.20;;
1400;SDS011;46518;48.842;8.926;2024-01-06T05:57:41;4.28;;;2.92;;
1400;SDS011;46518;48.842;8.926;2024-01-06T06:00:09;3.63;;;2.92;;
1400;SDS011;46518;48.842;8.926;2024-01-06T06:02:38;4.10;;;3.17;;
1400;SDS011;46518;48.842;8.926;2024-01-06T06:05:08;4.75;;;2.33;;
1400;SDS011;46518;48.842;8.926;2024-01-06T06:07:36;6.28;;;2.67;;
1400;SDS011;46518;48.842;8.926;2024-01-06T06:10:07;4.07;;;3.03;;
1400;SDS011;46518;48.842;8.926;2024-01-06T06:12:37;2.92;;;2.70;;
1400;SDS011;46518;48.842;8.926;2024-01-06T06:15:06;4.05;;;2.90;;
1400;SDS011;46518;48.842;8.926;2024-01-06T06:17:36;4.10;;;2.35;;
1400;SDS011;46518;48.842;8.926;2024-01-06T06:20:05;3.38;;;3.08;;
1400;SDS011;46518;48.842;8.926;2024-01-06T06:22:35;2.95;;;2.42;;
1400;SDS011;46518;48.842;8.926;2024-01-06T06:27:57;2.92;;;1.95;;
1400;SDS011;46518;48.842;8.926;2024-01-06T06:30:25;4.30;;;2.88;;
1400;SDS011;46518;48.842;8.926;2024-01-06T06:32:53;4.22;;;2.80;;
1400;SDS011;46518;48.842;8.926;2024-01-06T06:35:22;3.08;;;2.78;;
1400;SDS011;46518;48.842;8.926;2024-01-06T06:37:52;3.50;;;3.20;;
1400;SDS011;46518;48.842;8.926;2024-01-06T06:40:20;3.72;;;3.42;;
1400;SDS011;46518;48.842;8.926;2024-01-06T06:42:48;3.38;;;2.50;;
1400;SDS011;46518;48.842;8.926;2024-01-06T06:48:10;3.83;;;2.50;;
1400;SDS011;46518;48.842;8.926;2024-01-06T06:50:38;2.13;;;1.92;;
1400;SDS011;46518;48.842;8.926;2024-01-06T06:53:09;2.25;;;1.90;;
1400;SDS011;46518;48.842;8.926;2024-01-06T06:55:37;2.13;;;1.92;;
1400;SDS011;46518;48.842;8.926;2024-01-06T06:58:06;3.17;;;2.95;;
1400;SDS011;46518;48.842;8.926;2024-01-06T07:00:34;3.05;;;1.73;;
1400;SDS011;46518;48.842;8.926;2024-01-06T07:03:03;4.35;;;2.40;;
1400;SDS011;46518;48.842;8.926;2024-01-06T07:05:32;2.47;;;2.28;;
1400;SDS011;46518;48.842;8.926;2024-01-06T07:08:00;3.78;;;2.17;;
1400;SDS011;46518;48.842;8.926;2024-01-06T07:10:30;4.05;;;2.38;;
1400;SDS011;46518;48.842;8.926;2024-01-06T07:12:58;3.95;;;3.30;;
1400;SDS011;46518;48.842;8.926;2024-01-06T07:15:34;4.68;;;2.20;;
1400;SDS011;46518;48.842;8.926;2024-01-06T07:18:02;2.55;;;2.35;;
1400;SDS011;46518;48.842;8.926;2024-01-06T07:20:30;4.47;;;2.22;;
1400;SDS011;46518;48.842;8.926;2024-01-06T07:22:58;2.78;;;2.03;;
1400;SDS011;46518;48.842;8.926;2024-01-06T07:25:29;3.42;;;2.67;;
1400;SDS011;46518;48.842;8.926;2024-01-06T07:27:58;4.88;;;2.40;;
1400;SDS011;46518;48.842;8.926;2024-01-06T07:30:27;1.85;;;1.75;;
1400;SDS011;46518;48.842;8.926;2024-01-06T07:32:55;2.05;;;1.85;;
1400;SDS011;46518;48.842;8.926;2024-01-06T07:35:25;4.18;;;2.63;;
1400;SDS011;46518;48.842;8.926;2024-01-06T07:37:53;2.85;;;1.95;;
1400;SDS011;46518;48.842;8.926;2024-01-06T07:40:21;2.40;;;2.20;;
1400;SDS011;46518;48.842;8.926;2024-01-06T07:42:51;2.75;;;2.55;;
1400;SDS011;46518;48.842;8.926;2024-01-06T07:45:20;3.25;;;2.25;;
1400;SDS011;46518;48.842;8.926;2024-01-06T07:47:48;2.40;;;2.20;;
1400;SDS011;46518;48.842;8.926;2024-01-06T07:50:16;3.35;;;2.75;;
1400;SDS011;46518;48.842;8.926;2024-01-06T07:52:44;2.70;;;2.40;;
1400;SDS011;46518;48.842;8.926;2024-01-06T07:55:12;2.88;;;2.60;;
1400;SDS011;46518;48.842;8.926;2024-01-06T07:57:41;2.80;;;2.53;;
1400;SDS011;46518;48.842;8.926;2024-01-06T08:00:12;2.30;;;2.10;;
1400;SDS011;46518;48.842;8.926;2024-01-06T08:02:41;3.35;;;2.88;;
1400;SDS011;46518;48.842;8.926;2024-01-06T08:05:12;3.17;;;2.47;;
1400;SDS011;46518;48.842;8.926;2024-01-06T08:07:41;2.15;;;1.95;;
1400;SDS011;46518;48.842;8.926;2024-01-06T08:10:09;2.67;;;2.40;;
1400;SDS011;46518;48.842;8.926;2024-01-06T08:12:37;3.20;;;2.90;;
1400;SDS011;46518;48.842;8.926;2024-01-06T08:15:06;3.95;;;2.58;;
1400;SDS011;46518;48.842;8.926;2024-01-06T08:17:37;2.30;;;2.10;;
1400;SDS011;46518;48.842;8.926;2024-01-06T08:20:07;2.85;;;2.53;;
1400;SDS011;46518;48.842;8.926;2024-01-06T08:22:39;2.67;;;2.47;;
1400;SDS011;46518;48.842;8.926;2024-01-06T08:25:10;3.55;;;2.97;;
1400;SDS011;46518;48.842;8.926;2024-01-06T08:27:40;2.85;;;2.65;;
1400;SDS011;46518;48.842;8.926;2024-01-06T08:30:08;4.40;;;2.90;;
1400;SDS011;46518;48.842;8.926;2024-01-06T08:32:38;2.42;;;2.22;;
1400;SDS011;46518;48.842;8.926;2024-01-06T08:35:07;2.10;;;1.92;;
1400;SDS011;46518;48.842;8.926;2024-01-06T08:37:36;2.70;;;2.00;;
1400;SDS011;46518;48.842;8.926;2024-01-06T08:40:04;2.08;;;1.88;;
1400;SDS011;46518;48.842;8.926;2024-01-06T08:42:33;3.47;;;1.80;;
1400;SDS011;46518;48.842;8.926;2024-01-06T08:45:02;3.20;;;2.30;;
1400;SDS011;46518;48.842;8.926;2024-01-06T08:47:31;1.80;;;1.65;;
1400;SDS011;46518;48.842;8.926;2024-01-06T08:50:01;2.10;;;1.63;;
1400;SDS011;46518;48.842;8.926;2024-01-06T08:52:29;1.98;;;1.88;;
1400;SDS011;46518;48.842;8.926;2024-01-06T08:54:57;2.75;;;2.00;;
1400;SDS011;46518;48.842;8.926;2024-01-06T08:57:27;1.70;;;1.60;;
1400;SDS011;46518;48.842;8.926;2024-01-06T09:00:18;2.92;;;1.60;;
1400;SDS011;46518;48.842;8.926;2024-01-06T09:02:46;2.22;;;2.00;;
1400;SDS011;46518;48.842;8.926;2024-01-06T09:05:16;4.22;;;2.40;;
1400;SDS011;46518;48.842;8.926;2024-01-06T09:07:45;1.75;;;1.63;;
1400;SDS011;46518;48.842;8.926;2024-01-06T09:10:21;2.45;;;2.25;;
1400;SDS011;46518;48.842;8.926;2024-01-06T09:12:49;1.90;;;1.80;;
1400;SDS011;46518;48.842;8.926;2024-01-06T09:15:17;2.28;;;1.85;;
1400;SDS011;46518;48.842;8.926;2024-01-06T09:17:48;1.90;;;1.48;;
1400;SDS011;46518;48.842;8.926;2024-01-06T09:20:17;1.92;;;1.20;;
1400;SDS011;46518;48.842;8.926;2024-01-06T09:22:49;1.70;;;1.60;;
1400;SDS011;46518;48.842;8.926;2024-01-06T09:25:17;1.70;;;1.60;;
1400;SDS011;46518;48.842;8.926;2024-01-06T09:27:46;1.55;;;1.45;;
1400;SDS011;46518;48.842;8.926;2024-01-06T09:30:14;1.52;;;1.40;;
1400;SDS011;46518;48.842;8.926;2024-01-06T09:36:02;1.80;;;1.70;;
1400;SDS011;46518;48.842;8.926;2024-01-06T09:38:31;1.45;;;1.35;;
1400;SDS011;46518;48.842;8.926;2024-01-06T09:41:00;5.78;;;2.05;;
1400;SDS011;46518;48.842;8.926;2024-01-06T09:43:28;2.08;;;1.38;;
1400;SDS011;46518;48.842;8.926;2024-01-06T09:45:58;1.90;;;1.65;;
1400;SDS011;46518;48.842;8.926;2024-01-06T09:48:33;1.55;;;1.38;;
1400;SDS011;46518;48.842;8.926;2024-01-06T09:51:10;4.30;;;2.20;;
1400;SDS011;46518;48.842;8.926;2024-01-06T09:53:42;2.22;;;2.00;;
1400;SDS011;46518;48.842;8.926;2024-01-06T09:56:15;2.50;;;2.28;;
1400;SDS011;46518;48.842;8.926;2024-01-06T09:58:44;1.90;;;1.80;;
1400;SDS011;46518;48.842;8.926;2024-01-06T10:01:12;2.90;;;2.63;;
1400;SDS011;46518;48.842;8.926;2024-01-06T10:03:42;4.00;;;3.03;;
1400;SDS011;46518;48.842;8.926;2024-01-06T10:06:14;2.65;;;2.45;;
1400;SDS011;46518;48.842;8.926;2024-01-06T10:08:43;3.40;;;2.40;;
1400;SDS011;46518;48.842;8.926;2024-01-06T10:11:11;2.35;;;2.15;;
1400;SDS011;46518;48.842;8.926;2024-01-06T10:13:41;3.38;;;2.58;;
1400;SDS011;46518;48.842;8.926;2024-01-06T10:16:09;2.10;;;1.90;;
1400;SDS011;46518;48.842;8.926;2024-01-06T10:18:39;2.83;;;2.40;;
1400;SDS011;46518;48.842;8.926;2024-01-06T10:21:07;2.90;;;2.60;;
1400;SDS011;46518;48.842;8.926;2024-01-06T10:23:37;3.10;;;2.70;;
1400;SDS011;46518;48.842;8.926;2024-01-06T10:26:05;4.82;;;4.15;;
1400;SDS011;46518;48.842;8.926;2024-01-06T10:28:33;2.65;;;2.22;;
1400;SDS011;46518;48.842;8.926;2024-01-06T10:31:02;2.53;;;2.30;;
1400;SDS011;46518;48.842;8.926;2024-01-06T10:33:32;3.08;;;2.78;;
1400;SDS011;46518;48.842;8.926;2024-01-06T10:36:01;3.00;;;2.70;;
1400;SDS011;46518;48.842;8.926;2024-01-06T10:38:29;3.40;;;2.80;;
1400;SDS011;46518;48.842;8.926;2024-01-06T10:41:03;3.95;;;3.00;;
1400;SDS011;46518;48.842;8.926;2024-01-06T10:43:34;3.42;;;2.83;;
1400;SDS011;46518;48.842;8.926;2024-01-06T10:46:07;3.00;;;2.80;;
1400;SDS011;46518;48.842;8.926;2024-01-06T10:48:38;5.50;;;3.25;;
1400;SDS011;46518;48.842;8.926;2024-01-06T10:51:10;2.85;;;2.60;;
1400;SDS011;46518;48.842;8.926;2024-01-06T10:53:40;8.48;;;3.42;;
1400;SDS011;46518;48.842;8.926;2024-01-06T10:56:11;3.75;;;3.40;;
1400;SDS011;46518;48.842;8.926;2024-01-06T10:58:39;3.67;;;3.33;;
1400;SDS011;46518;48.842;8.926;2024-01-06T11:01:15;4.55;;;4.15;;
1400;SDS011;46518;48.842;8.926;2024-01-06T11:03:52;5.60;;;4.05;;
1400;SDS011;46518;48.842;8.926;2024-01-06T11:06:23;4.05;;;3.45;;
1400;SDS011;46518;48.842;8.926;2024-01-06T11:09:09;4.80;;;3.53;;
1400;SDS011;46518;48.842;8.926;2024-01-06T11:11:54;4.05;;;3.72;;
1400;SDS011;46518;48.842;8.926;2024-01-06T11:14:37;4.20;;;3.90;;
1400;SDS011;46518;48.842;8.926;2024-01-06T11:17:21;4.20;;;3.80;;
1400;SDS011;46518;48.842;8.926;2024-01-06T11:20:26;4.50;;;3.40;;
1400;SDS011;46518;48.842;8.926;2024-01-06T11:22:57;5.88;;;4.50;;
1400;SDS011;46518;48.842;8.926;2024-01-06T11:25:47;5.18;;;4.38;;
1400;SDS011;46518;48.842;8.926;2024-01-06T11:28:19;4.00;;;3.70;;
1400;SDS011;46518;48.842;8.926;2024-01-06T11:30:48;4.32;;;3.92;;
1400;SDS011;46518;48.842;8.926;2024-01-06T11:33:33;4.10;;;3.80;;
1400;SDS011;46518;48.842;8.926;2024-01-06T11:36:14;7.53;;;5.55;;
1400;SDS011;46518;48.842;8.926;2024-01-06T11:38:50;4.15;;;3.83;;
1400;SDS011;46518;48.842;8.926;2024-01-06T11:44:35;4.18;;;3.78;;
1400;SDS011;46518;48.842;8.926;2024-01-06T11:47:13;4.13;;;3.70;;
1400;SDS011;46518;48.842;8.926;2024-01-06T11:49:53;5.32;;;4.65;;
1400;SDS011;46518;48.842;8.926;2024-01-06T11:52:30;4.28;;;3.65;;
1400;SDS011;46518;48.842;8.926;2024-01-06T11:55:01;6.07;;;3.42;;
1400;SDS011;46518;48.842;8.926;2024-01-06T11:57:30;4.07;;;3.67;;
1400;SDS011;46518;48.842;8.926;2024-01-06T12:00:01;3.75;;;3.33;;
1400;SDS011;46518;48.842;8.926;2024-01-06T12:02:32;5.95;;;3.50;;
1400;SDS011;46518;48.842;8.926;2024-01-06T12:05:01;5.20;;;4.38;;
1400;SDS011;46518;48.842;8.926;2024-01-06T12:07:32;5.10;;;4.18;;
1400;SDS011;46518;48.842;8.926;2024-01-06T12:10:05;5.80;;;4.05;;
1400;SDS011;46518;48.842;8.926;2024-01-06T12:12:38;4.43;;;4.03;;
1400;SDS011;46518;48.842;8.926;2024-01-06T12:15:10;5.95;;;4.97;;
1400;SDS011;46518;48.842;8.926;2024-01-06T12:17:40;4.40;;;3.67;;
1400;SDS011;46518;48.842;8.926;2024-01-06T12:20:12;5.22;;;4.82;;
1400;SDS011;46518;48.842;8.926;2024-01-06T12:22:44;5.25;;;4.57;;
1400;SDS011;46518;48.842;8.926;2024-01-06T12:25:14;6.38;;;4.90;;
1400;SDS011;46518;48.842;8.926;2024-01-06T12:27:43;6.72;;;5.43;;
1400;SDS011;46518;48.842;8.926;2024-01-06T12:30:15;5.20;;;4.70;;
1400;SDS011;46518;48.842;8.926;2024-01-06T12:32:47;6.85;;;5.22;;
1400;SDS011;46518;48.842;8.926;2024-01-06T12:35:16;7.47;;;5.97;;
1400;SDS011;46518;48.842;8.926;2024-01-06T12:37:45;9.30;;;4.85;;
1400;SDS011;46518;48.842;8.926;2024-01-06T12:40:14;6.68;;;4.28;;
1400;SDS011;46518;48.842;8.926;2024-01-06T12:42:44;6.85;;;4.65;;
1400;SDS011;46518;48.842;8.926;2024-01-06T12:45:16;5.78;;;4.70;;
1400;SDS011;46518;48.842;8.926;2024-01-06T12:47:49;6.75;;;5.15;;
1400;SDS011;46518;48.842;8.926;2024-01-06T12:50:27;5.68;;;4.22;;
1400;SDS011;46518;48.842;8.926;2024-01-06T12:53:06;4.97;;;4.43;;
1400;SDS011;46518;48.842;8.926;2024-01-06T12:55:44;8.80;;;4.70;;
1400;SDS011;46518;48.842;8.926;2024-01-06T12:58:14;6.75;;;5.28;;
1400;SDS011;46518;48.842;8.926;2024-01-06T13:00:44;3.63;;;3.33;;
1400;SDS011;46518;48.842;8.926;2024-01-06T13:03:13;4.85;;;4.38;;
1400;SDS011;46518;48.842;8.926;2024-01-06T13:05:45;5.28;;;4.40;;
1400;SDS011;46518;48.842;8.926;2024-01-06T13:08:14;4.28;;;3.88;;
1400;SDS011;46518;48.842;8.926;2024-01-06T13:10:45;5.82;;;4.80;;
1400;SDS011;46518;48.842;8.926;2024-01-06T13:13:13;5.05;;;4.07;;
1400;SDS011;46518;48.842;8.926;2024-01-06T13:15:46;4.38;;;3.35;;
1400;SDS011;46518;48.842;8.926;2024-01-06T13:18:14;3.38;;;3.08;;
1400;SDS011;46518;48.842;8.926;2024-01-06T13:20:43;3.35;;;3.05;;
1400;SDS011;46518;48.842;8.926;2024-01-06T13:23:11;4.30;;;3.67;;
1400;SDS011;46518;48.842;8.926;2024-01-06T13:25:39;5.97;;;5.00;;
1400;SDS011;46518;48.842;8.926;2024-01-06T13:28:07;4.72;;;4.30;;
1400;SDS011;46518;48.842;8.926;2024-01-06T13:30:36;5.20;;;4.15;;
1400;SDS011;46518;48.842;8.926;2024-01-06T13:33:07;5.82;;;5.25;;
1400;SDS011;46518;48.842;8.926;2024-01-06T13:35:37;6.18;;;5.10;;
1400;SDS011;46518;48.842;8.926;2024-01-06T13:38:08;5.47;;;4.93;;
1400;SDS011;46518;48.842;8.926;2024-01-06T13:40:39;5.10;;;4.60;;
1400;SDS011;46518;48.842;8.926;2024-01-06T13:43:08;6.55;;;4.72;;
1400;SDS011;46518;48.842;8.926;2024-01-06T13:45:42;6.57;;;5.35;;
1400;SDS011;46518;48.842;8.926;2024-01-06T13:48:13;5.75;;;4.13;;
1400;SDS011;46518;48.842;8.926;2024-01-06T13:50:41;7.72;;;5.50;;
1400;SDS011;46518;48.842;8.926;2024-01-06T13:53:09;6.60;;;5.45;;
1400;SDS011;46518;48.842;8.926;2024-01-06T13:55:38;8.30;;;6.28;;
1400;SDS011;46518;48.842;8.926;2024-01-06T13:58:06;7.38;;;5.65;;
1400;SDS011;46518;48.842;8.926;2024-01-06T14:00:36;6.80;;;5.63;;
1400;SDS011;46518;48.842;8.926;2024-01-06T14:03:05;7.75;;;5.95;;
1400;SDS011;46518;48.842;8.926;2024-01-06T14:05:35;8.73;;;5.95;;
1400;SDS011;46518;48.842;8.926;2024-01-06T14:08:05;6.35;;;5.72;;
1400;SDS011;46518;48.842;8.926;2024-01-06T14:10:36;7.00;;;5.80;;
1400;SDS011;46518;48.842;8.926;2024-01-06T14:13:04;9.70;;;6.97;;
1400;SDS011;46518;48.842;8.926;2024-01-06T14:15:34;6.90;;;6.20;;
1400;SDS011;46518;48.842;8.926;2024-01-06T14:18:03;8.07;;;6.25;;
1400;SDS011;46518;48.842;8.926;2024-01-06T14:20:32;8.18;;;6.20;;
1400;SDS011;46518;48.842;8.926;2024-01-06T14:23:06;10.82;;;7.25;;
1400;SDS011;46518;48.842;8.926;2024-01-06T14:25:35;11.30;;;6.35;;
1400;SDS011;46518;48.842;8.926;2024-01-06T14:28:03;10.00;;;6.43;;
1400;SDS011;46518;48.842;8.926;2024-01-06T14:30:32;7.57;;;6.88;;
1400;SDS011;46518;48.842;8.926;2024-01-06T14:33:01;6.93;;;6.20;;
1400;SDS011;46518;48.842;8.926;2024-01-06T14:35:29;8.15;;;5.50;;
1400;SDS011;46518;48.842;8.926;2024-01-06T14:37:58;9.85;;;7.07;;
1400;SDS011;46518;48.842;8.926;2024-01-06T14:40:27;8.57;;;6.00;;
1400;SDS011;46518;48.842;8.926;2024-01-06T14:42:55;8.57;;;6.70;;
1400;SDS011;46518;48.842;8.926;2024-01-06T14:45:24;10.27;;;7.70;;
1400;SDS011;46518;48.842;8.926;2024-01-06T14:47:52;9.73;;;7.43;;
1400;SDS011;46518;48.842;8.926;2024-01-06T14:50:22;9.00;;;6.88;;
1400;SDS011;46518;48.842;8.926;2024-01-06T14:52:50;9.95;;;7.43;;
1400;SDS011;46518;48.842;8.926;2024-01-06T14:55:18;8.88;;;6.85;;
1400;SDS011;46518;48.842;8.926;2024-01-06T14:57:48;8.63;;;7.32;;
1400;SDS011;46518;48.842;8.926;2024-01-06T15:00:16;10.95;;;7.72;;
1400;SDS011;46518;48.842;8.926;2024-01-06T15:02:44;9.55;;;6.82;;
1400;SDS011;46518;48.842;8.926;2024-01-06T15:05:16;9.63;;;7.22;;
1400;SDS011;46518;48.842;8.926;2024-01-06T15:07:45;9.55;;;7.93;;
1400;SDS011;46518;48.842;8.926;2024-01-06T15:10:13;11.15;;;8.13;;
1400;SDS011;46518;48.842;8.926;2024-01-06T15:12:42;14.68;;;9.40;;
1400;SDS011;46518;48.842;8.926;2024-01-06T15:15:12;10.75;;;8.32;;
1400;SDS011;46518;48.842;8.926;2024-01-06T15:17:43;11.10;;;8.20;;
1400;SDS011;46518;48.842;8.926;2024-01-06T15:20:15;11.38;;;8.68;;
1400;SDS011;46518;48.842;8.926;2024-01-06T15:22:43;11.00;;;8.10;;
1400;SDS011;46518;48.842;8.926;2024-01-06T15:25:11;9.95;;;8.10;;
1400;SDS011;46518;48.842;8.926;2024-01-06T15:27:41;13.85;;;9.40;;
1400;SDS011;46518;48.842;8.926;2024-01-06T15:30:14;10.75;;;7.80;;
1400;SDS011;46518;48.842;8.926;2024-01-06T15:32:45;9.63;;;8.48;;